Time;durP1;ratioP1;P1;durP2;ratioP2;P2;SDS_P1;SDS_P2;PMS_P1;PMS_P2;Temp;Humidity;BMP_temperature;BMP_pressure;BME280_temperature;BME280_humidity;BME280_pressure;Samples;Min_cycle;Max_cycle;Signal;HPM_P1;HPM_P2
2022/10/26 00:02:41;;;;;;;;;;;;;;;13.89;62.40;95677.47;5113508;28;1675;-57
2022/10/26 00:05:26;;;;;;;;;;;;;;;13.75;62.67;95680.81;5112690;28;1544;-57
2022/10/26 00:08:11;;;;;;;;;;;;;;;13.65;63.30;95675.63;5112685;28;1521;-57
2022/10/26 00:10:57;;;;;;;;;;;;;;;13.65;62.96;95681.00;5113635;28;1886;-57
2022/10/26 00:13:43;;;;;;;;;;;;;;;13.62;63.37;95679.50;5113405;28;1661;-57
2022/10/26 00:16:28;;;;;;;;;;;;;;;13.78;62.44;95681.31;5113750;28;1710;-57
2022/10/26 00:19:14;;;;;;;;;;;;;;;13.55;63.36;95670.41;5113568;28;1670;-57
2022/10/26 00:21:59;;;;;;;;;;;;;;;13.70;62.71;95675.97;5112339;28;1682;-57
2022/10/26 00:24:45;;;;;;;;;;;;;;;13.60;62.71;95683.31;5113246;28;1641;-57
2022/10/26 00:27:32;;;;;;;;;;;;;;;13.70;62.39;95684.03;5113183;28;1591;-57
2022/10/26 00:30:18;;;;;;;;;;;;;;;13.75;62.60;95670.91;5113442;28;1674;-57
2022/10/26 00:33:04;;;;;;;;;;;;;;;13.71;63.03;95680.31;5113128;28;1910;-57
2022/10/26 00:35:53;;;;;;;;;;;;;;;13.44;63.72;95685.00;5113532;28;2307;-57
2022/10/26 00:38:44;;;;;;;;;;;;;;;13.45;63.44;95685.84;5114218;28;1650;-57
2022/10/26 00:41:31;;;;;;;;;;;;;;;13.56;63.21;95681.97;5096188;28;1758;-57
2022/10/26 00:44:35;;;;;;;;;;;;;;;13.53;63.25;95685.03;5096690;28;1686;-57
2022/10/26 00:47:30;;;;;;;;;;;;;;;13.40;63.26;95693.56;5096595;28;1701;-57
2022/10/26 00:50:23;;;;;;;;;;;;;;;13.39;63.66;95689.19;5096293;28;2242;-57
2022/10/26 00:53:09;;;;;;;;;;;;;;;13.32;63.18;95701.59;5096127;28;1615;-57
2022/10/26 00:55:55;;;;;;;;;;;;;;;13.30;63.47;95696.41;5109647;28;1531;-57
2022/10/26 00:58:41;;;;;;;;;;;;;;;13.21;63.66;95706.25;5096467;28;1646;-57
2022/10/26 01:01:27;;;;;;;;;;;;;;;13.25;63.72;95696.00;5096352;28;1532;-57
2022/10/26 01:04:13;;;;;;;;;;;;;;;13.25;63.70;95696.00;5095947;28;1583;-57
2022/10/26 01:07:03;;;;;;;;;;;;;;;13.00;64.30;95700.47;5096254;28;1540;-57
2022/10/26 01:09:48;;;;;;;;;;;;;;;13.01;63.75;95700.31;5096078;28;1560;-57
2022/10/26 01:12:34;;;;;;;;;;;;;;;13.04;64.11;95699.97;5095801;28;1910;-57
2022/10/26 01:15:23;;;;;;;;;;;;;;;13.06;63.94;95697.97;5095739;28;1706;-57
2022/10/26 01:18:22;;;;;;;;;;;;;;;12.89;64.52;95696.22;5095978;28;1540;-57
2022/10/26 01:21:18;;;;;;;;;;;;;;;12.97;64.69;95700.78;5095589;28;1706;-57
2022/10/26 01:24:07;;;;;;;;;;;;;;;13.02;64.69;95699.31;5095997;28;1698;-57
2022/10/26 01:26:53;;;;;;;;;;;;;;;12.91;64.86;95699.59;5095917;28;1532;-57
2022/10/26 01:29:47;;;;;;;;;;;;;;;13.00;64.47;95704.00;5095812;28;1536;-57
2022/10/26 01:32:45;;;;;;;;;;;;;;;12.75;64.86;95688.78;5095491;28;1989;-57
2022/10/26 01:35:36;;;;;;;;;;;;;;;12.72;65.16;95691.81;5095677;28;1540;-57
2022/10/26 01:38:40;;;;;;;;;;;;;;;12.76;65.52;95695.84;5095592;28;1532;-57
2022/10/26 01:41:33;;;;;;;;;;;;;;;12.82;65.32;95697.88;5095241;28;1608;-57
2022/10/26 01:44:38;;;;;;;;;;;;;;;12.72;65.34;95692.66;5095428;28;1549;-57
2022/10/26 01:47:25;;;;;;;;;;;;;;;12.61;65.60;95688.41;5095067;28;1563;-57
2022/10/26 01:50:10;;;;;;;;;;;;;;;12.86;64.65;95691.19;5095048;28;1717;-57
2022/10/26 01:52:56;;;;;;;;;;;;;;;12.88;64.55;95686.50;5095021;28;1981;-57
2022/10/26 01:55:48;;;;;;;;;;;;;;;12.89;65.14;95680.97;5095353;28;1668;-57
2022/10/26 01:58:43;;;;;;;;;;;;;;;12.97;64.63;95685.53;5094949;28;1587;-57
2022/10/26 02:01:28;;;;;;;;;;;;;;;12.76;65.34;95682.44;5094842;28;1737;-57
2022/10/26 02:04:32;;;;;;;;;;;;;;;12.65;65.17;95687.09;5095073;28;1552;-57
2022/10/26 02:07:31;;;;;;;;;;;;;;;12.39;65.78;95688.97;5094961;28;1658;-57
2022/10/26 02:10:20;;;;;;;;;;;;;;;12.26;66.29;95690.22;5094983;28;1698;-57
2022/10/26 02:13:08;;;;;;;;;;;;;;;12.17;66.51;95690.34;5095170;28;1927;-57
2022/10/26 02:16:20;;;;;;;;;;;;;;;12.27;66.52;95701.78;5094673;28;1572;-57
2022/10/26 02:19:27;;;;;;;;;;;;;;;12.34;66.01;95696.66;5093584;28;1544;-57
2022/10/26 02:22:21;;;;;;;;;;;;;;;12.33;66.13;95697.63;5094761;28;1564;-57
2022/10/26 02:25:09;;;;;;;;;;;;;;;12.25;66.42;95699.25;5094739;28;1541;-57
2022/10/26 02:27:58;;;;;;;;;;;;;;;12.09;66.87;95691.13;5094380;28;1730;-57
2022/10/26 02:30:45;;;;;;;;;;;;;;;12.01;67.24;95699.09;5094696;28;1517;-57
2022/10/26 02:33:44;;;;;;;;;;;;;;;12.11;67.16;95698.00;5093640;28;1255;-57
2022/10/26 02:36:32;;;;;;;;;;;;;;;12.13;66.60;95694.34;5094441;28;1718;-57
2022/10/26 02:39:19;;;;;;;;;;;;;;;12.09;66.88;95693.81;5096926;28;1663;-57
2022/10/26 02:42:07;;;;;;;;;;;;;;;12.08;66.72;95692.97;5114365;28;1595;-57
2022/10/26 02:45:05;;;;;;;;;;;;;;;12.02;67.01;95700.78;5114764;28;1548;-57
2022/10/26 02:47:51;;;;;;;;;;;;;;;11.98;66.97;95702.94;5114743;28;1685;-57
2022/10/26 02:50:43;;;;;;;;;;;;;;;12.03;66.70;95703.31;5114722;28;1606;-57
2022/10/26 02:53:31;;;;;;;;;;;;;;;12.13;66.49;95705.06;5114521;28;1674;-57
2022/10/26 02:56:20;;;;;;;;;;;;;;;12.06;66.88;95699.47;5114542;28;1628;-57
2022/10/26 02:59:08;;;;;;;;;;;;;;;12.07;67.14;95698.50;5114248;28;1543;-57
2022/10/26 03:01:54;;;;;;;;;;;;;;;12.24;66.56;95704.81;5114112;28;1709;-57
2022/10/26 03:04:39;;;;;;;;;;;;;;;12.35;66.26;95703.69;5114174;28;1563;-57
2022/10/26 03:07:25;;;;;;;;;;;;;;;12.23;66.03;95700.44;5114015;28;1551;-57
2022/10/26 03:10:10;;;;;;;;;;;;;;;12.16;66.62;95702.06;5114280;28;1540;-57
2022/10/26 03:12:56;;;;;;;;;;;;;;;12.29;65.96;95708.69;5114037;28;1910;-57
2022/10/26 03:15:41;;;;;;;;;;;;;;;12.10;66.42;95709.75;5114296;28;1547;-57
2022/10/26 03:18:26;;;;;;;;;;;;;;;12.22;66.59;95715.69;5114181;28;1346;-57
2022/10/26 03:21:12;;;;;;;;;;;;;;;12.14;66.57;95707.59;5113838;28;1698;-57
2022/10/26 03:23:57;;;;;;;;;;;;;;;12.04;67.23;95712.19;5114198;28;1539;-57
2022/10/26 03:26:43;;;;;;;;;;;;;;;12.03;67.07;95708.69;5114196;28;1685;-57
2022/10/26 03:29:28;;;;;;;;;;;;;;;11.99;66.85;95717.16;5114042;28;1675;-57
2022/10/26 03:32:13;;;;;;;;;;;;;;;11.86;67.19;95715.72;5112781;28;1988;-57
2022/10/26 03:35:01;;;;;;;;;;;;;;;11.79;67.36;95719.19;5113983;28;1663;-57
2022/10/26 03:37:46;;;;;;;;;;;;;;;11.71;67.86;95711.91;5113766;28;2371;-57
2022/10/26 03:40:31;;;;;;;;;;;;;;;11.87;67.45;95725.41;5113964;28;1310;-57
2022/10/26 03:43:17;;;;;;;;;;;;;;;11.85;66.96;95721.22;5113797;28;1587;-57
2022/10/26 03:46:03;;;;;;;;;;;;;;;11.75;67.23;95729.34;5113955;28;1496;-57
2022/10/26 03:48:48;;;;;;;;;;;;;;;11.66;67.51;95723.06;5113641;28;2393;-57
2022/10/26 03:51:34;;;;;;;;;;;;;;;11.67;67.56;95727.44;5113981;28;1996;-56
2022/10/26 03:54:19;;;;;;;;;;;;;;;11.58;68.10;95728.38;5113430;28;1647;-57
2022/10/26 03:57:04;;;;;;;;;;;;;;;11.69;67.76;95719.25;5113577;28;1697;-57
2022/10/26 03:59:50;;;;;;;;;;;;;;;11.86;67.57;95710.34;5114010;28;1563;-57
2022/10/26 04:02:35;;;;;;;;;;;;;;;11.74;67.45;95711.59;5113538;28;1555;-57
2022/10/26 04:05:21;;;;;;;;;;;;;;;11.87;67.03;95711.19;5113720;28;1666;-57
2022/10/26 04:08:07;;;;;;;;;;;;;;;11.81;67.13;95717.19;5113350;28;1575;-57
2022/10/26 04:10:52;;;;;;;;;;;;;;;11.65;67.72;95724.09;5113658;28;1897;-57
2022/10/26 04:13:38;;;;;;;;;;;;;;;11.49;68.03;95726.59;5114174;28;1725;-57
2022/10/26 04:16:23;;;;;;;;;;;;;;;11.44;68.14;95729.75;5117284;28;1725;-57
2022/10/26 04:19:08;;;;;;;;;;;;;;;11.51;68.00;95735.31;5117536;28;1673;-57
2022/10/26 04:21:54;;;;;;;;;;;;;;;11.58;68.03;95738.25;5116626;28;1504;-57
2022/10/26 04:24:39;;;;;;;;;;;;;;;11.46;68.48;95737.63;5117203;28;1717;-57
2022/10/26 04:27:25;;;;;;;;;;;;;;;11.51;68.25;95738.88;5117354;27;1662;-57
2022/10/26 04:30:10;;;;;;;;;;;;;;;11.33;68.25;95740.69;5117339;28;1536;-57
2022/10/26 04:32:56;;;;;;;;;;;;;;;11.30;68.23;95751.69;5117045;27;1918;-57
2022/10/26 04:35:41;;;;;;;;;;;;;;;11.30;68.03;95744.47;5117000;27;1761;-57
2022/10/26 04:38:27;;;;;;;;;;;;;;;11.31;68.06;95743.50;5117205;28;1824;-57
2022/10/26 04:41:12;;;;;;;;;;;;;;;11.08;68.60;95750.28;5097858;28;1717;-57
2022/10/26 04:43:58;;;;;;;;;;;;;;;10.96;68.94;95754.13;5095612;28;1827;-57
2022/10/26 04:46:49;;;;;;;;;;;;;;;11.10;68.76;95756.31;5096682;28;2023;-57
2022/10/26 04:49:34;;;;;;;;;;;;;;;11.10;68.67;95750.97;5096682;28;1622;-57
2022/10/26 04:52:20;;;;;;;;;;;;;;;11.18;68.89;95760.91;5096071;28;1914;-57
2022/10/26 04:55:05;;;;;;;;;;;;;;;11.38;68.31;95754.44;5096540;28;1647;-57
2022/10/26 04:57:51;;;;;;;;;;;;;;;11.27;68.33;95760.84;5096465;28;1532;-57
2022/10/26 05:00:36;;;;;;;;;;;;;;;11.29;68.04;95766.91;5096368;28;1674;-57
2022/10/26 05:03:22;;;;;;;;;;;;;;;11.10;69.01;95759.00;5095329;28;1551;-57
2022/10/26 05:06:07;;;;;;;;;;;;;;;11.20;69.09;95764.28;5095923;28;1713;-57
2022/10/26 05:08:53;;;;;;;;;;;;;;;11.33;68.40;95767.44;5095199;28;1543;-57
2022/10/26 05:11:38;;;;;;;;;;;;;;;11.25;68.99;95765.53;5095862;28;1917;-57
2022/10/26 05:14:23;;;;;;;;;;;;;;;11.27;68.62;95765.38;5095760;28;1698;-57
2022/10/26 05:17:09;;;;;;;;;;;;;;;11.51;67.79;95757.59;5094714;28;1694;-57
2022/10/26 05:19:55;;;;;;;;;;;;;;;11.49;68.30;95762.25;5096027;28;1731;-57
2022/10/26 05:22:41;;;;;;;;;;;;;;;11.52;68.47;95761.94;5096010;28;1657;-57
2022/10/26 05:25:27;;;;;;;;;;;;;;;11.69;67.93;95764.81;5095272;28;1714;-57
2022/10/26 05:28:13;;;;;;;;;;;;;;;11.67;68.54;95772.16;5095897;28;1485;-57
2022/10/26 05:30:59;;;;;;;;;;;;;;;11.64;68.32;95772.44;5095742;28;1902;-57
2022/10/26 05:33:47;;;;;;;;;;;;;;;11.70;68.47;95779.88;5095810;28;1537;-57
2022/10/26 05:36:35;;;;;;;;;;;;;;;11.76;67.93;95776.59;5095745;28;1622;-57
2022/10/26 05:39:21;;;;;;;;;;;;;;;11.86;67.89;95784.56;5098438;28;1636;-57
2022/10/26 05:42:06;;;;;;;;;;;;;;;11.96;67.79;95792.53;5115801;28;1523;-57
2022/10/26 05:44:51;;;;;;;;;;;;;;;12.06;67.77;95793.28;5115668;28;1721;-57
2022/10/26 05:47:40;;;;;;;;;;;;;;;12.21;67.70;95785.53;5115948;28;1690;-57
2022/10/26 05:50:26;;;;;;;;;;;;;;;12.20;67.74;95792.75;5115539;28;1729;-57
2022/10/26 05:53:11;;;;;;;;;;;;;;;12.41;67.39;95788.88;5115395;28;1985;-57
2022/10/26 05:55:57;;;;;;;;;;;;;;;12.66;67.11;95797.94;5115414;28;1555;-57
2022/10/26 05:58:43;;;;;;;;;;;;;;;12.92;67.00;95802.41;5115694;28;1693;-57
2022/10/26 06:01:38;;;;;;;;;;;;;;;13.24;66.69;95804.41;5115560;28;1646;-57
2022/10/26 06:04:37;;;;;;;;;;;;;;;13.76;64.53;95817.72;5115544;28;1693;-57
2022/10/26 06:07:23;;;;;;;;;;;;;;;14.06;63.24;95818.94;5114380;28;1485;-57
2022/10/26 06:10:09;;;;;;;;;;;;;;;14.49;62.52;95817.94;5115447;28;1694;-57
2022/10/26 06:12:55;;;;;;;;;;;;;;;14.73;61.83;95819.81;5115166;28;1992;-57
2022/10/26 06:15:49;;;;;;;;;;;;;;;15.02;60.34;95830.88;5115420;27;1718;-57
2022/10/26 06:18:35;;;;;;;;;;;;;;;15.12;59.87;95836.06;5115013;28;1548;-57
2022/10/26 06:21:23;;;;;;;;;;;;;;;15.35;59.75;95836.16;5114912;28;1706;-57
2022/10/26 06:24:13;;;;;;;;;;;;;;;15.73;58.88;95839.06;5115070;28;1544;-57
2022/10/26 06:27:05;;;;;;;;;;;;;;;16.13;57.69;95837.13;5115169;28;1551;-57
2022/10/26 06:29:57;;;;;;;;;;;;;;;16.65;56.12;95848.22;5114809;28;1697;-57
2022/10/26 06:32:44;;;;;;;;;;;;;;;18.06;52.43;95854.63;5114723;28;1914;-57
2022/10/26 06:35:29;;;;;;;;;;;;;;;20.26;46.81;95862.53;5114948;28;1552;-58
2022/10/26 06:38:20;;;;;;;;;;;;;;;21.08;44.81;95873.34;5114465;28;1666;-58
2022/10/26 06:41:05;;;;;;;;;;;;;;;21.53;43.02;95857.22;5096845;28;1548;-58
2022/10/26 06:43:52;;;;;;;;;;;;;;;20.09;46.10;95853.94;5094150;28;1555;-58
2022/10/26 06:46:45;;;;;;;;;;;;;;;18.42;49.85;95846.50;5094461;28;1668;-58
2022/10/26 06:49:30;;;;;;;;;;;;;;;17.46;52.71;95846.56;5094226;28;1702;-58
2022/10/26 06:52:23;;;;;;;;;;;;;;;16.98;54.91;95851.50;5094029;28;1985;-58
2022/10/26 06:55:15;;;;;;;;;;;;;;;16.71;55.91;95850.16;5093885;28;1560;-58
2022/10/26 06:58:01;;;;;;;;;;;;;;;16.56;57.17;95855.53;5094209;28;1567;-58
2022/10/26 07:00:47;;;;;;;;;;;;;;;16.67;56.60;95862.38;5094214;28;1539;-58
2022/10/26 07:03:33;;;;;;;;;;;;;;;16.76;56.57;95855.88;5094144;28;1509;-58
2022/10/26 07:06:18;;;;;;;;;;;;;;;16.93;56.27;95845.78;5094056;28;1547;-58
2022/10/26 07:09:04;;;;;;;;;;;;;;;17.05;56.10;95855.13;5092789;28;1869;-58
2022/10/26 07:11:49;;;;;;;;;;;;;;;17.16;56.77;95851.13;5093650;28;1914;-58
2022/10/26 07:14:34;;;;;;;;;;;;;;;17.41;56.31;95856.25;5093602;28;1429;-58
2022/10/26 07:17:20;;;;;;;;;;;;;;;17.57;55.55;95850.69;5093875;28;1666;-58
2022/10/26 07:20:05;;;;;;;;;;;;;;;17.62;55.96;95852.81;5093903;28;1552;-58
2022/10/26 07:22:51;;;;;;;;;;;;;;;18.02;54.95;95854.19;5093790;28;1658;-58
2022/10/26 07:25:39;;;;;;;;;;;;;;;20.29;49.15;95864.84;5092866;28;1677;-58
2022/10/26 07:28:24;;;;;;;;;;;;;;;23.36;42.11;95866.72;5093741;28;1556;-59
2022/10/26 07:31:09;;;;;;;;;;;;;;;23.62;41.17;95866.69;5093462;28;1987;-59
2022/10/26 07:33:55;;;;;;;;;;;;;;;23.10;41.65;95862.34;5093471;28;1563;-59
2022/10/26 07:36:40;;;;;;;;;;;;;;;21.96;45.05;95848.50;5093365;28;1551;-59
2022/10/26 07:39:31;;;;;;;;;;;;;;;24.62;40.09;95854.59;5097022;28;1568;-59
2022/10/26 07:42:17;;;;;;;;;;;;;;;23.07;42.35;95849.16;5113599;28;1659;-59
2022/10/26 07:45:03;;;;;;;;;;;;;;;22.21;44.31;95845.91;5113986;28;1548;-59
2022/10/26 07:47:48;;;;;;;;;;;;;;;22.63;43.61;95844.63;5114117;28;1536;-59
2022/10/26 07:50:34;;;;;;;;;;;;;;;22.41;43.48;95842.25;5118218;28;1698;-59
2022/10/26 07:53:19;;;;;;;;;;;;;;;21.78;45.56;95834.78;5117739;28;1906;-59
2022/10/26 07:56:05;;;;;;;;;;;;;;;21.25;46.51;95831.09;5118032;28;1544;-59
2022/10/26 07:58:51;;;;;;;;;;;;;;;21.25;46.47;95835.69;5118008;28;1524;-59
2022/10/26 08:01:36;;;;;;;;;;;;;;;23.80;41.72;95846.81;5117974;28;1564;-59
2022/10/26 08:04:22;;;;;;;;;;;;;;;23.71;40.64;95852.53;5117576;28;2232;-59
2022/10/26 08:07:07;;;;;;;;;;;;;;;22.44;43.39;95846.41;5117544;28;1552;-59
2022/10/26 08:09:52;;;;;;;;;;;;;;;22.19;44.26;95841.69;5116552;28;1702;-59
2022/10/26 08:12:38;;;;;;;;;;;;;;;22.30;43.08;95842.94;5117423;28;1917;-59
2022/10/26 08:15:24;;;;;;;;;;;;;;;23.43;41.21;95838.53;5117318;28;1544;-59
2022/10/26 08:18:09;;;;;;;;;;;;;;;22.37;43.97;95821.94;5117270;28;1555;-58
2022/10/26 08:21:00;;;;;;;;;;;;;;;21.69;45.57;95825.16;5117661;28;1511;-59
2022/10/26 08:23:45;;;;;;;;;;;;;;;21.33;46.55;95818.31;5117586;28;2051;-59
2022/10/26 08:26:31;;;;;;;;;;;;;;;21.41;46.37;95816.19;5117437;28;1445;-59
2022/10/26 08:29:16;;;;;;;;;;;;;;;21.57;46.47;95825.81;5117119;27;1551;-59
2022/10/26 08:32:02;;;;;;;;;;;;;;;22.18;45.30;95827.25;5117041;28;1987;-59
2022/10/26 08:34:47;;;;;;;;;;;;;;;22.76;44.21;95822.72;5117087;28;1718;-59
2022/10/26 08:37:32;;;;;;;;;;;;;;;22.74;44.27;95825.66;5117358;28;1519;-59
2022/10/26 08:40:20;;;;;;;;;;;;;;;22.47;44.51;95826.91;5106073;28;1556;-59
2022/10/26 08:43:14;;;;;;;;;;;;;;;22.18;44.76;95820.97;5096505;28;1576;-59
2022/10/26 08:46:03;;;;;;;;;;;;;;;22.27;45.90;95822.44;5096770;28;1694;-59
2022/10/26 08:48:54;;;;;;;;;;;;;;;22.31;46.03;95820.94;5096423;28;1575;-59
2022/10/26 08:51:40;;;;;;;;;;;;;;;23.45;43.17;95829.09;5096521;28;1913;-59
2022/10/26 08:54:26;;;;;;;;;;;;;;;24.06;41.92;95835.56;5095545;28;1678;-59
2022/10/26 08:57:20;;;;;;;;;;;;;;;24.02;42.12;95833.50;5096451;28;1532;-59
2022/10/26 09:00:10;;;;;;;;;;;;;;;23.62;42.79;95821.13;5095457;28;1564;-59
2022/10/26 09:02:56;;;;;;;;;;;;;;;23.34;43.68;95817.00;5096087;28;1694;-59
2022/10/26 09:05:44;;;;;;;;;;;;;;;23.24;44.29;95816.69;5096441;28;1671;-59
2022/10/26 09:08:44;;;;;;;;;;;;;;;23.26;44.22;95808.25;5096231;28;1543;-59
2022/10/26 09:11:46;;;;;;;;;;;;;;;23.41;43.26;95816.94;5095739;28;1906;-59
2022/10/26 09:14:37;;;;;;;;;;;;;;;23.59;42.77;95810.66;5096187;28;1556;-58
2022/10/26 09:17:31;;;;;;;;;;;;;;;23.84;42.38;95815.25;5096067;28;1517;-58
2022/10/26 09:20:25;;;;;;;;;;;;;;;24.15;43.23;95816.97;5095061;28;1606;-58
2022/10/26 09:23:20;;;;;;;;;;;;;;;24.64;41.67;95814.19;5095686;28;1548;-59
2022/10/26 09:26:10;;;;;;;;;;;;;;;24.96;41.26;95812.00;5094987;28;1673;-58
2022/10/26 09:28:57;;;;;;;;;;;;;;;25.16;39.94;95816.31;5095646;28;1709;-58
2022/10/26 09:31:44;;;;;;;;;;;;;;;25.36;39.79;95810.50;5095680;28;1913;-59
2022/10/26 09:34:34;;;;;;;;;;;;;;;25.43;39.85;95811.25;5095708;28;1655;-59
2022/10/26 09:37:22;;;;;;;;;;;;;;;25.77;39.75;95809.53;5095695;28;1670;-59
2022/10/26 09:40:17;;;;;;;;;;;;;;;26.45;38.46;95812.56;5105181;28;1516;-59
2022/10/26 09:43:03;;;;;;;;;;;;;;;28.33;35.74;95824.03;5115586;28;1713;-59
2022/10/26 09:45:50;;;;;;;;;;;;;;;30.84;31.47;95843.50;5116026;28;1536;-59
2022/10/26 09:48:39;;;;;;;;;;;;;;;32.10;29.34;95849.31;5115964;28;1698;-59
2022/10/26 09:51:26;;;;;;;;;;;;;;;32.58;28.93;95851.66;5115706;28;1909;-59
2022/10/26 09:54:15;;;;;;;;;;;;;;;32.56;28.18;95836.41;5115764;28;1568;-59
2022/10/26 09:57:01;;;;;;;;;;;;;;;32.35;29.34;95832.91;5115795;28;1524;-59
2022/10/26 09:59:48;;;;;;;;;;;;;;;31.92;30.01;95827.75;5114707;28;1606;-59
2022/10/26 10:02:34;;;;;;;;;;;;;;;31.55;30.25;95817.91;5115702;28;1509;-59
2022/10/26 10:05:27;;;;;;;;;;;;;;;30.81;31.24;95816.41;5115532;28;1582;-59
2022/10/26 10:08:17;;;;;;;;;;;;;;;29.45;33.07;95808.91;5115451;27;1536;-59
2022/10/26 10:11:05;;;;;;;;;;;;;;;28.09;35.05;95793.22;5114324;28;1563;-59
2022/10/26 10:13:51;;;;;;;;;;;;;;;26.63;37.22;95779.47;5115449;28;1540;-58
2022/10/26 10:16:36;;;;;;;;;;;;;;;25.51;39.17;95770.63;5115420;28;1540;-58
2022/10/26 10:19:26;;;;;;;;;;;;;;;24.80;41.16;95752.53;5115219;28;1674;-58
2022/10/26 10:22:14;;;;;;;;;;;;;;;24.33;41.73;95751.31;5115171;28;1539;-58
2022/10/26 10:25:02;;;;;;;;;;;;;;;24.04;42.12;95754.94;5114950;28;1572;-58
2022/10/26 10:27:51;;;;;;;;;;;;;;;23.81;43.00;95755.63;5115206;28;1524;-58
2022/10/26 10:30:37;;;;;;;;;;;;;;;23.64;43.19;95744.47;5115126;28;1516;-58
2022/10/26 10:33:30;;;;;;;;;;;;;;;23.55;43.47;95742.03;5114574;28;1918;-58
2022/10/26 10:36:18;;;;;;;;;;;;;;;23.46;44.06;95743.41;5114646;28;1551;-58
2022/10/26 10:39:22;;;;;;;;;;;;;;;23.45;43.57;95735.44;5114039;28;1552;-58
2022/10/26 10:42:28;;;;;;;;;;;;;;;23.43;43.42;95727.50;5093990;28;1579;-58
2022/10/26 10:45:17;;;;;;;;;;;;;;;23.40;41.67;95730.69;5093339;28;1662;-58
2022/10/26 10:48:12;;;;;;;;;;;;;;;23.38;41.62;95724.63;5094143;28;1581;-58
2022/10/26 10:50:59;;;;;;;;;;;;;;;23.31;42.43;95724.69;5094383;28;1579;-58
2022/10/26 10:53:48;;;;;;;;;;;;;;;23.23;42.86;95718.72;5093988;28;1571;-58
2022/10/26 10:56:33;;;;;;;;;;;;;;;23.21;42.19;95713.47;5094268;28;1532;-58
2022/10/26 10:59:31;;;;;;;;;;;;;;;23.14;40.92;95719.00;5094230;28;1540;-59
2022/10/26 11:02:16;;;;;;;;;;;;;;;23.06;41.68;95713.03;5093775;28;1698;-59
2022/10/26 11:05:20;;;;;;;;;;;;;;;23.12;41.24;95702.03;5093844;28;1583;-58
2022/10/26 11:08:11;;;;;;;;;;;;;;;23.17;41.52;95704.91;5094060;28;1539;-58
2022/10/26 11:10:59;;;;;;;;;;;;;;;23.12;41.03;95702.03;5094070;28;1638;-58
2022/10/26 11:13:54;;;;;;;;;;;;;;;23.04;41.02;95706.97;5094062;28;1690;-58
2022/10/26 11:16:42;;;;;;;;;;;;;;;23.01;40.36;95702.75;5094001;28;1564;-58
2022/10/26 11:19:46;;;;;;;;;;;;;;;23.11;40.55;95694.09;5093542;28;1563;-58
2022/10/26 11:22:40;;;;;;;;;;;;;;;23.17;40.84;95698.63;5093563;28;1535;-58
2022/10/26 11:25:49;;;;;;;;;;;;;;;23.20;40.83;95692.69;5093748;28;1532;-58
2022/10/26 11:28:43;;;;;;;;;;;;;;;23.16;40.60;95692.34;5093858;28;1662;-58
2022/10/26 11:31:40;;;;;;;;;;;;;;;23.13;40.95;95681.88;5093522;28;1996;-58
2022/10/26 11:38:12;;;;;;;;;;;;;;;23.07;40.78;95687.41;5093449;28;863;-58
2022/10/26 11:41:09;;;;;;;;;;;;;;;23.07;40.41;95682.78;5109890;28;1702;-58
2022/10/26 11:44:02;;;;;;;;;;;;;;;22.92;39.96;95682.31;5113701;28;1137;-58
2022/10/26 11:47:01;;;;;;;;;;;;;;;22.93;40.24;95673.06;5114008;28;1646;-58
2022/10/26 11:49:56;;;;;;;;;;;;;;;22.91;41.59;95669.72;5114026;28;1517;-58
2022/10/26 11:52:48;;;;;;;;;;;;;;;22.97;41.50;95672.38;5113534;28;1898;-58
2022/10/26 11:55:33;;;;;;;;;;;;;;;22.98;41.74;95659.59;5112580;28;1682;-58
2022/10/26 11:58:23;;;;;;;;;;;;;;;22.99;41.62;95669.41;5113863;28;1508;-58
2022/10/26 12:01:12;;;;;;;;;;;;;;;23.04;40.61;95675.06;5112811;28;1532;-58
2022/10/26 12:03:59;;;;;;;;;;;;;;;23.02;41.25;95671.69;5113560;28;2391;-58
2022/10/26 12:06:46;;;;;;;;;;;;;;;22.95;41.89;95665.47;5113918;28;1516;-58
2022/10/26 12:09:33;;;;;;;;;;;;;;;22.78;41.68;95649.72;5113925;28;1563;-58
2022/10/26 12:12:27;;;;;;;;;;;;;;;22.68;41.07;95662.19;5113361;28;1993;-58
2022/10/26 12:15:16;;;;;;;;;;;;;;;22.78;41.77;95649.72;5113327;28;1792;-58
2022/10/26 12:18:19;;;;;;;;;;;;;;;22.84;41.47;95649.88;5112439;28;1555;-58
2022/10/26 12:21:06;;;;;;;;;;;;;;;22.87;41.68;95646.69;5113637;28;1631;-58
2022/10/26 12:23:58;;;;;;;;;;;;;;;22.83;40.84;95650.94;5112583;28;1531;-58
2022/10/26 12:26:56;;;;;;;;;;;;;;;22.79;40.91;95650.56;5113296;28;1675;-58
2022/10/26 12:29:46;;;;;;;;;;;;;;;22.78;40.01;95647.00;5113280;28;1694;-58
2022/10/26 12:32:31;;;;;;;;;;;;;;;22.86;40.24;95648.59;5113111;28;1905;-58
2022/10/26 12:35:35;;;;;;;;;;;;;;;22.81;39.94;95643.81;5115192;28;1537;-58
2022/10/26 12:38:20;;;;;;;;;;;;;;;22.78;39.97;95649.72;5116871;28;1556;-58
2022/10/26 12:41:06;;;;;;;;;;;;;;;22.84;40.42;95644.41;5098056;28;1686;-58
2022/10/26 12:43:54;;;;;;;;;;;;;;;22.89;41.26;95629.03;5095480;28;1578;-58
2022/10/26 12:46:40;;;;;;;;;;;;;;;22.90;41.22;95635.34;5096428;28;1575;-58
2022/10/26 12:49:44;;;;;;;;;;;;;;;22.87;41.32;95636.63;5096648;28;1730;-58
2022/10/26 12:52:30;;;;;;;;;;;;;;;22.78;40.41;95641.56;5096340;28;1988;-58
2022/10/26 12:55:18;;;;;;;;;;;;;;;22.67;41.92;95631.38;5096151;28;1551;-58
2022/10/26 12:58:19;;;;;;;;;;;;;;;22.69;40.44;95637.44;5096248;28;1536;-58
2022/10/26 13:01:05;;;;;;;;;;;;;;;22.63;41.15;95638.31;5096226;28;1536;-58
2022/10/26 13:03:50;;;;;;;;;;;;;;;22.69;41.21;95634.72;5096583;28;1528;-58
2022/10/26 13:06:36;;;;;;;;;;;;;;;22.69;41.64;95634.72;5095404;28;1563;-58
2022/10/26 13:09:23;;;;;;;;;;;;;;;22.70;40.86;95635.53;5096268;28;1647;-58
2022/10/26 13:12:09;;;;;;;;;;;;;;;22.64;40.70;95637.28;5095832;28;2043;-58
2022/10/26 13:14:57;;;;;;;;;;;;;;;22.70;41.57;95639.09;5094965;28;1539;-58
2022/10/26 13:17:51;;;;;;;;;;;;;;;22.69;41.90;95636.59;5094884;28;1539;-58
2022/10/26 13:20:50;;;;;;;;;;;;;;;22.66;41.41;95634.34;5096171;28;1674;-58
2022/10/26 13:23:37;;;;;;;;;;;;;;;22.63;41.55;95632.88;5095933;28;1567;-58
2022/10/26 13:26:24;;;;;;;;;;;;;;;22.65;41.17;95633.50;5095647;28;1701;-58
2022/10/26 13:29:09;;;;;;;;;;;;;;;22.66;41.53;95628.88;5095597;28;1563;-58
2022/10/26 13:31:55;;;;;;;;;;;;;;;22.66;40.75;95640.63;5095529;28;1913;-58
2022/10/26 13:34:42;;;;;;;;;;;;;;;22.56;40.61;95634.84;5094593;28;1551;-58
2022/10/26 13:37:29;;;;;;;;;;;;;;;22.56;40.14;95641.13;5095451;28;1698;-58
2022/10/26 13:40:25;;;;;;;;;;;;;;;22.62;40.85;95628.50;5105799;28;1717;-58
2022/10/26 13:43:15;;;;;;;;;;;;;;;22.59;40.07;95637.13;5114713;28;1706;-58
2022/10/26 13:46:02;;;;;;;;;;;;;;;22.59;40.38;95634.38;5115505;28;1692;-58
2022/10/26 13:48:49;;;;;;;;;;;;;;;22.59;40.19;95635.25;5115728;28;2355;-58
2022/10/26 13:51:39;;;;;;;;;;;;;;;22.55;41.05;95635.91;5115488;28;1937;-58
2022/10/26 13:54:30;;;;;;;;;;;;;;;22.42;41.33;95639.56;5115772;28;1524;-58
2022/10/26 13:57:19;;;;;;;;;;;;;;;22.46;40.99;95637.25;5114738;28;1690;-58
2022/10/26 14:00:15;;;;;;;;;;;;;;;22.48;41.16;95635.13;5114420;28;1685;-58
2022/10/26 14:03:11;;;;;;;;;;;;;;;22.51;41.17;95638.25;5114711;28;1658;-58
2022/10/26 14:05:56;;;;;;;;;;;;;;;22.55;41.35;95635.91;5115626;28;1512;-58
2022/10/26 14:08:46;;;;;;;;;;;;;;;22.61;41.12;95637.72;5115573;28;1677;-58
2022/10/26 14:11:46;;;;;;;;;;;;;;;22.58;40.61;95638.19;5115109;28;1926;-58
2022/10/26 14:14:36;;;;;;;;;;;;;;;22.57;40.78;95641.94;5115133;28;1762;-57
2022/10/26 14:17:23;;;;;;;;;;;;;;;22.52;40.60;95644.50;5115029;28;1678;-58
2022/10/26 14:20:17;;;;;;;;;;;;;;;22.53;40.59;95646.19;5114986;28;1703;-58
2022/10/26 14:23:02;;;;;;;;;;;;;;;22.47;41.60;95644.38;5114957;28;1555;-58
2022/10/26 14:25:51;;;;;;;;;;;;;;;22.38;40.76;95639.19;5115246;28;1686;-58
2022/10/26 14:28:42;;;;;;;;;;;;;;;22.45;40.31;95646.47;5115201;28;1544;-58
2022/10/26 14:31:29;;;;;;;;;;;;;;;22.50;40.14;95646.63;5114879;28;1925;-58
2022/10/26 14:34:15;;;;;;;;;;;;;;;22.51;39.84;95654.59;5114947;28;1655;-58
2022/10/26 14:37:02;;;;;;;;;;;;;;;22.53;39.59;95648.91;5115078;27;1666;-58
2022/10/26 14:39:47;;;;;;;;;;;;;;;22.54;40.39;95651.44;5108211;28;1503;-58
2022/10/26 14:42:35;;;;;;;;;;;;;;;22.53;40.61;95646.19;5094170;28;1529;-58
2022/10/26 14:45:22;;;;;;;;;;;;;;;22.49;42.08;95644.97;5094374;28;1532;-58
2022/10/26 14:48:18;;;;;;;;;;;;;;;22.42;42.83;95643.16;5094284;28;1531;-58
2022/10/26 14:51:03;;;;;;;;;;;;;;;22.37;43.53;95645.72;5094397;28;1516;-58
2022/10/26 14:53:50;;;;;;;;;;;;;;;22.33;43.78;95644.50;5094343;28;1571;-58
2022/10/26 14:56:35;;;;;;;;;;;;;;;22.28;43.90;95652.47;5094266;28;1658;-58